Time;durP1;ratioP1;P1;durP2;ratioP2;P2;SDS_P1;SDS_P2;PMS_P1;PMS_P2;Temp;Humidity;BMP_temperature;BMP_pressure;BME280_temperature;BME280_humidity;BME280_pressure;Samples;Min_cycle;Max_cycle;Signal;HPM_P1;HPM_P2
2023/03/15 00:00:05;;;;;;;10.80;7.83;;;;;;;11.10;41.11;93653.84;4990577;28;20593;-53
2023/03/15 00:02:31;;;;;;;11.60;7.80;;;;;;;11.09;40.99;93647.13;4990560;28;20341;-55
2023/03/15 00:05:00;;;;;;;11.97;8.23;;;;;;;11.08;41.19;93644.72;4988246;28;20566;-58
2023/03/15 00:07:26;;;;;;;10.43;7.83;;;;;;;11.05;41.15;93646.69;4990696;28;20181;-56
2023/03/15 00:09:54;;;;;;;12.90;8.50;;;;;;;11.04;41.28;93646.81;4990609;28;20572;-53
2023/03/15 00:12:22;;;;;;;15.70;8.27;;;;;;;11.03;41.63;93645.25;4990328;28;20630;-48
2023/03/15 00:14:49;;;;;;;12.33;7.67;;;;;;;11.02;41.21;93654.69;4990203;28;20255;-49
2023/03/15 00:17:16;;;;;;;11.23;7.03;;;;;;;11.01;41.41;93653.09;4990149;28;20197;-49
2023/03/15 00:19:43;;;;;;;13.23;7.63;;;;;;;10.99;41.49;93651.66;4989679;28;20216;-48
2023/03/15 00:22:11;;;;;;;13.17;8.97;;;;;;;10.94;41.56;93641.13;4989732;28;20232;-52
2023/03/15 00:24:38;;;;;;;13.67;8.03;;;;;;;10.97;41.38;93641.59;4990192;28;20197;-56
2023/03/15 00:27:05;;;;;;;11.57;7.43;;;;;;;10.97;41.53;93639.03;4989771;28;20626;-55
2023/03/15 00:29:32;;;;;;;10.53;7.57;;;;;;;10.94;41.47;93638.56;4987987;28;20672;-50
2023/03/15 00:31:59;;;;;;;13.47;8.00;;;;;;;10.96;41.47;93639.19;4989297;28;20185;-56
2023/03/15 00:34:26;;;;;;;11.77;8.17;;;;;;;10.96;41.61;93639.97;4989366;28;20229;-53
2023/03/15 00:36:53;;;;;;;9.73;7.53;;;;;;;10.90;41.62;93616.84;4989591;28;20200;-55
2023/03/15 00:39:24;;;;;;;15.47;8.20;;;;;;;10.99;41.67;93628.63;4989364;28;20197;-51
2023/03/15 00:41:55;;;;;;;12.97;7.63;;;;;;;10.98;41.58;93627.03;4989783;28;20212;-57
2023/03/15 00:44:22;;;;;;;10.87;7.93;;;;;;;10.99;41.65;93634.53;4989590;28;20580;-49
2023/03/15 00:46:49;;;;;;;10.27;7.33;;;;;;;11.00;41.62;93628.44;4989781;28;20193;-51
2023/03/15 00:49:16;;;;;;;13.13;8.33;;;;;;;11.02;41.67;93629.09;4989264;28;20251;-50
2023/03/15 00:51:42;;;;;;;12.53;6.90;;;;;;;11.03;41.57;93612.78;4989826;28;20189;-54
2023/03/15 00:54:12;;;;;;;11.67;7.93;;;;;;;11.02;41.80;93608.63;4989600;28;20252;-52
2023/03/15 00:56:41;;;;;;;12.07;7.63;;;;;;;11.04;41.81;93611.00;4988990;28;20243;-52
2023/03/15 00:59:08;;;;;;;10.73;8.10;;;;;;;11.05;41.60;93613.41;4989520;28;20386;-53
2023/03/15 01:01:34;;;;;;;11.20;7.80;;;;;;;11.05;41.68;93610.84;4989313;28;20283;-57
2023/03/15 01:04:01;;;;;;;12.40;7.80;;;;;;;11.08;41.67;93607.16;4988982;28;20185;-51
2023/03/15 01:06:29;;;;;;;13.37;7.57;;;;;;;11.06;41.74;93593.75;4989489;28;20220;-53
2023/03/15 01:08:56;;;;;;;12.50;7.10;;;;;;;11.09;41.53;93603.63;4988938;28;20207;-53
2023/03/15 01:11:25;;;;;;;11.60;7.80;;;;;;;11.07;41.63;93591.97;4989490;28;20664;-52
2023/03/15 01:13:56;;;;;;;11.10;7.77;;;;;;;11.07;41.62;93590.22;4989180;28;20598;-51
2023/03/15 01:16:22;;;;;;;12.53;7.37;;;;;;;11.14;41.75;93595.44;4989459;28;20704;-49
2023/03/15 01:18:50;;;;;;;14.37;7.63;;;;;;;11.16;41.59;93601.22;4988667;28;20189;-53
2023/03/15 01:21:18;;;;;;;11.27;7.67;;;;;;;11.16;41.62;93586.66;4988007;28;20197;-50
2023/03/15 01:23:45;;;;;;;12.70;7.77;;;;;;;11.16;41.90;93583.28;4987962;28;20272;-54
2023/03/15 01:26:14;;;;;;;10.20;8.03;;;;;;;11.18;41.85;93581.34;4989133;28;20669;-52
2023/03/15 01:28:40;;;;;;;11.17;7.67;;;;;;;11.18;41.80;93569.38;4989131;28;20201;-52
2023/03/15 01:31:14;;;;;;;11.77;7.60;;;;;;;11.17;41.98;93572.88;4989310;28;20196;-47
2023/03/15 01:33:41;;;;;;;13.83;7.97;;;;;;;11.18;41.95;93577.06;4988880;28;20667;-50
2023/03/15 01:36:08;;;;;;;14.57;8.03;;;;;;;11.18;41.94;93573.69;4990025;28;20197;-51
2023/03/15 01:38:35;;;;;;;10.90;7.53;;;;;;;11.19;41.84;93570.16;4989636;28;20303;-53
2023/03/15 01:41:02;;;;;;;9.67;8.23;;;;;;;11.19;41.95;93568.41;4993300;28;20193;-51
2023/03/15 01:43:31;;;;;;;11.50;8.17;;;;;;;11.17;41.89;93566.97;4993245;28;20228;-46
2023/03/15 01:46:17;;;;;;;10.47;7.77;;;;;;;11.18;42.08;93571.13;4992744;28;20220;-46
2023/03/15 01:48:49;;;;;;;15.07;8.47;;;;;;;11.16;41.99;93558.50;4992290;28;20200;-46
2023/03/15 01:51:22;;;;;;;14.47;7.83;;;;;;;11.16;41.99;93563.63;4992773;28;20189;-46
2023/03/15 01:53:55;;;;;;;14.67;8.80;;;;;;;11.15;42.07;93551.81;4992952;28;20660;-46
2023/03/15 01:56:23;;;;;;;11.70;8.37;;;;;;;11.15;42.24;93545.88;4992715;28;20605;-45
2023/03/15 01:58:53;;;;;;;11.33;7.83;;;;;;;11.14;42.20;93549.38;4992635;28;20340;-47
2023/03/15 02:01:21;;;;;;;13.87;8.43;;;;;;;11.00;42.16;93526.13;4992719;28;20189;-46
2023/03/15 02:03:55;;;;;;;11.07;8.13;;;;;;;11.13;42.19;93540.91;4991848;28;20220;-47
2023/03/15 02:06:23;;;;;;;11.87;7.87;;;;;;;11.11;42.11;93521.59;4992105;28;20200;-45
2023/03/15 02:08:53;;;;;;;10.43;7.87;;;;;;;11.12;42.18;93526.53;4992516;28;20677;-50
2023/03/15 02:11:22;;;;;;;12.50;8.07;;;;;;;11.12;42.14;93523.97;4992576;28;20693;-47
2023/03/15 02:13:51;;;;;;;13.27;8.97;;;;;;;11.10;42.27;93520.03;4990651;28;20360;-49
2023/03/15 02:16:19;;;;;;;12.97;8.10;;;;;;;11.10;42.30;93525.13;4992182;28;20189;-46
2023/03/15 02:18:47;;;;;;;10.00;7.47;;;;;;;11.08;42.40;93517.63;4991598;28;20189;-52
2023/03/15 02:21:23;;;;;;;14.57;8.50;;;;;;;11.07;42.27;93513.47;4992253;28;20683;-47
2023/03/15 02:23:59;;;;;;;12.00;8.13;;;;;;;11.07;42.42;93517.78;4991737;28;20220;-51
2023/03/15 02:26:32;;;;;;;13.23;7.93;;;;;;;11.05;42.31;93503.41;4992407;28;20188;-51
2023/03/15 02:29:00;;;;;;;11.37;7.73;;;;;;;11.04;42.85;93511.25;4991927;28;20243;-47
2023/03/15 02:31:28;;;;;;;12.10;8.50;;;;;;;11.02;42.52;93505.50;4992089;28;20196;-48
2023/03/15 02:33:55;;;;;;;13.20;8.00;;;;;;;11.01;42.61;93509.84;4991928;28;20189;-49
2023/03/15 02:36:26;;;;;;;12.43;8.20;;;;;;;11.01;42.57;93517.50;4992310;28;20256;-51
2023/03/15 02:38:54;;;;;;;12.90;7.43;;;;;;;11.00;42.59;93513.34;4991920;28;20646;-53
2023/03/15 02:41:27;;;;;;;11.60;8.57;;;;;;;11.00;42.27;93515.09;4991435;28;20197;-51
2023/03/15 02:43:58;;;;;;;11.87;7.97;;;;;;;10.98;42.62;93510.16;4991614;28;20232;-47
2023/03/15 02:46:27;;;;;;;11.70;8.50;;;;;;;10.99;42.69;93508.41;4991705;28;20215;-49
2023/03/15 02:48:54;;;;;;;12.20;7.53;;;;;;;10.97;42.60;93502.66;4991649;28;20673;-48
2023/03/15 02:51:24;;;;;;;12.80;8.17;;;;;;;10.94;42.65;93503.78;4990992;28;20193;-49
2023/03/15 02:53:51;;;;;;;11.93;8.57;;;;;;;10.96;42.85;93501.06;4991388;28;20196;-48
2023/03/15 02:56:17;;;;;;;10.30;7.63;;;;;;;10.90;42.98;93494.06;4991524;28;20235;-48
2023/03/15 02:58:45;;;;;;;13.37;8.43;;;;;;;10.88;42.91;93488.31;4991462;28;20534;-46
2023/03/15 03:01:13;;;;;;;14.37;8.17;;;;;;;10.91;42.73;93495.66;4990993;28;20279;-47
2023/03/15 03:03:42;;;;;;;13.67;8.20;;;;;;;10.87;43.15;93497.75;4991489;28;20316;-46
2023/03/15 03:06:10;;;;;;;12.40;7.87;;;;;;;10.85;43.19;93488.66;4989528;28;20756;-46
2023/03/15 03:08:37;;;;;;;10.17;7.87;;;;;;;10.83;43.26;93481.16;4991371;28;20188;-47
2023/03/15 03:11:04;;;;;;;10.80;7.87;;;;;;;10.66;43.11;93452.31;4990981;28;20208;-47
2023/03/15 03:13:31;;;;;;;11.30;8.27;;;;;;;10.78;43.46;93476.53;4991333;28;20245;-51
2023/03/15 03:15:58;;;;;;;14.27;8.93;;;;;;;10.76;43.28;93475.94;4990837;28;20653;-52
2023/03/15 03:18:25;;;;;;;12.80;8.57;;;;;;;10.74;43.24;93471.94;4991226;28;20652;-54
2023/03/15 03:20:55;;;;;;;15.67;8.73;;;;;;;10.74;43.27;93474.50;4990672;28;20672;-55
2023/03/15 03:23:24;;;;;;;10.37;8.20;;;;;;;10.73;43.44;93475.47;4991208;28;20286;-53
2023/03/15 03:25:52;;;;;;;12.30;7.87;;;;;;;10.70;43.55;93466.34;4990696;28;20396;-48
2023/03/15 03:28:19;;;;;;;10.40;8.30;;;;;;;10.70;43.52;93465.56;4991018;28;20260;-46
2023/03/15 03:30:46;;;;;;;10.87;8.07;;;;;;;10.69;43.58;93454.53;4989077;28;20193;-48
2023/03/15 03:33:13;;;;;;;16.20;8.50;;;;;;;10.70;43.46;93460.44;4990813;28;20195;-47
2023/03/15 03:35:40;;;;;;;16.03;8.40;;;;;;;10.71;43.63;93467.97;4991035;28;20197;-46
2023/03/15 03:38:08;;;;;;;10.70;8.20;;;;;;;10.64;43.44;93446.59;4991128;28;20204;-49
2023/03/15 03:40:35;;;;;;;15.03;9.20;;;;;;;10.72;43.50;93451.66;4990828;28;20200;-46
2023/03/15 03:43:02;;;;;;;14.80;9.00;;;;;;;10.73;43.61;93448.13;4990595;28;20220;-50
2023/03/15 03:45:29;;;;;;;11.83;8.57;;;;;;;10.74;43.49;93448.94;4990377;28;20235;-56
2023/03/15 03:47:56;;;;;;;13.83;8.97;;;;;;;10.74;43.66;93449.72;4990253;28;20637;-51
2023/03/15 03:50:23;;;;;;;11.23;7.70;;;;;;;10.74;43.62;93454.84;4990623;28;20200;-49
2023/03/15 03:52:49;;;;;;;11.63;8.17;;;;;;;10.75;43.81;93448.78;4990359;28;20244;-46
2023/03/15 03:55:18;;;;;;;14.90;8.53;;;;;;;10.77;43.58;93448.59;4989229;28;20189;-47
2023/03/15 03:57:44;;;;;;;13.40;8.70;;;;;;;10.77;43.84;93443.47;4989751;28;20716;-50
2023/03/15 04:00:14;;;;;;;15.03;8.37;;;;;;;10.79;43.65;93439.81;4989895;28;20190;-55
2023/03/15 04:02:42;;;;;;;12.17;8.50;;;;;;;10.78;43.83;93430.53;4989628;28;20221;-48
2023/03/15 04:05:10;;;;;;;13.17;8.23;;;;;;;10.79;43.94;93432.13;4990212;28;20288;-55
2023/03/15 04:07:36;;;;;;;13.63;8.53;;;;;;;10.78;44.01;93427.97;4989810;28;20247;-50
2023/03/15 04:10:04;;;;;;;11.43;8.83;;;;;;;10.79;44.13;93432.13;4990211;28;20208;-58
2023/03/15 04:12:32;;;;;;;10.17;8.07;;;;;;;10.75;44.03;93424.94;4990154;28;20196;-51
2023/03/15 04:14:59;;;;;;;11.07;8.03;;;;;;;10.80;43.95;93435.47;4989808;28;20189;-47
2023/03/15 04:17:25;;;;;;;16.33;8.97;;;;;;;10.80;44.06;93426.03;4990197;28;20200;-50
2023/03/15 04:19:52;;;;;;;10.67;7.87;;;;;;;10.80;44.05;93428.59;4989170;28;20201;-55
2023/03/15 04:22:19;;;;;;;13.43;8.07;;;;;;;10.82;43.78;93438.66;4989045;28;20257;-48
2023/03/15 04:24:49;;;;;;;11.90;8.07;;;;;;;10.82;44.13;93433.53;4989934;28;20217;-53
2023/03/15 04:27:16;;;;;;;12.27;7.90;;;;;;;10.83;43.79;93422.34;4989991;28;20189;-48
2023/03/15 04:29:44;;;;;;;13.67;8.00;;;;;;;10.82;44.21;93425.88;4989453;28;20185;-51
2023/03/15 04:32:11;;;;;;;12.13;8.13;;;;;;;10.82;44.03;93423.31;4989978;28;20613;-52
2023/03/15 04:34:38;;;;;;;12.63;8.23;;;;;;;10.82;44.14;93425.88;4989755;28;20200;-58
2023/03/15 04:37:06;;;;;;;11.90;8.50;;;;;;;10.83;44.33;93427.44;4989712;28;20320;-51
2023/03/15 04:39:32;;;;;;;12.47;8.03;;;;;;;10.84;44.15;93418.84;4989397;28;20197;-48
2023/03/15 04:41:59;;;;;;;12.47;8.00;;;;;;;10.85;44.20;93420.41;4989792;28;20204;-48
2023/03/15 04:44:26;;;;;;;14.60;8.40;;;;;;;10.86;44.11;93421.22;4988944;28;20213;-47
2023/03/15 04:46:56;;;;;;;10.83;7.97;;;;;;;10.87;44.21;93425.34;4988485;28;20185;-52
2023/03/15 04:49:23;;;;;;;12.93;7.70;;;;;;;10.88;44.08;93422.66;4989721;28;20205;-54
2023/03/15 04:51:50;;;;;;;13.50;7.83;;;;;;;10.89;44.22;93426.78;4989832;28;20824;-45
2023/03/15 04:54:17;;;;;;;9.97;7.37;;;;;;;10.90;44.33;93423.25;4989967;28;20763;-53
2023/03/15 04:56:43;;;;;;;14.80;8.17;;;;;;;10.90;44.39;93409.69;4989561;28;20221;-53
2023/03/15 04:59:10;;;;;;;14.57;8.30;;;;;;;10.90;44.42;93417.34;4989599;28;20197;-57
2023/03/15 05:01:37;;;;;;;14.20;8.73;;;;;;;10.92;44.50;93413.63;4989467;28;20573;-56
2023/03/15 05:04:06;;;;;;;13.50;7.80;;;;;;;10.96;44.34;93421.75;4989783;28;20213;-58
2023/03/15 05:06:32;;;;;;;11.07;7.67;;;;;;;10.97;44.32;93420.81;4989501;28;20665;-57
2023/03/15 05:08:59;;;;;;;16.43;8.87;;;;;;;10.96;44.19;93422.56;4990053;28;20192;-59
2023/03/15 05:11:26;;;;;;;15.43;8.47;;;;;;;11.03;44.15;93432.91;4989902;28;20247;-54
2023/03/15 05:13:53;;;;;;;16.87;9.73;;;;;;;11.08;44.19;93424.72;4989614;28;20204;-58
2023/03/15 05:16:20;;;;;;;13.20;8.93;;;;;;;11.20;43.77;93419.03;4993733;28;20197;-59
2023/03/15 05:18:47;;;;;;;14.57;8.73;;;;;;;11.46;43.74;93428.09;4993982;28;20283;-56
2023/03/15 05:21:15;;;;;;;12.33;7.93;;;;;;;11.67;43.65;93422.28;4993287;28;20694;-57
2023/03/15 05:23:42;;;;;;;16.90;9.23;;;;;;;11.82;43.50;93412.84;4993772;28;20624;-60
2023/03/15 05:26:09;;;;;;;14.03;8.77;;;;;;;11.92;43.39;93426.22;4993126;28;20193;-56
2023/03/15 05:28:35;;;;;;;12.53;8.17;;;;;;;11.99;43.52;93418.59;4993453;28;20280;-57
2023/03/15 05:31:02;;;;;;;14.83;8.03;;;;;;;12.04;43.51;93408.59;4993162;28;20294;-57
2023/03/15 05:33:30;;;;;;;13.27;8.97;;;;;;;12.09;43.24;93408.06;4993243;28;20300;-56
2023/03/15 05:35:57;;;;;;;11.53;8.20;;;;;;;12.12;43.04;93408.53;4993215;28;20296;-58
2023/03/15 05:38:26;;;;;;;12.37;8.17;;;;;;;12.15;42.82;93407.38;4992689;28;20244;-58
2023/03/15 05:40:53;;;;;;;13.37;8.80;;;;;;;12.22;43.01;93414.19;4993262;28;20206;-57
2023/03/15 05:43:20;;;;;;;12.67;8.43;;;;;;;12.26;42.90;93423.09;4992646;28;20216;-52
2023/03/15 05:45:47;;;;;;;11.47;8.33;;;;;;;12.29;42.95;93407.34;4992834;28;20189;-57
2023/03/15 05:48:15;;;;;;;16.00;8.20;;;;;;;12.34;42.88;93400.88;4993272;28;20181;-56
2023/03/15 05:50:42;;;;;;;12.27;7.53;;;;;;;12.37;42.67;93396.19;4993417;28;20276;-58
2023/03/15 05:53:08;;;;;;;14.10;8.50;;;;;;;12.29;42.61;93386.84;4992953;28;20196;-54
2023/03/15 05:55:37;;;;;;;12.53;8.00;;;;;;;12.46;42.43;93402.00;4992993;28;20303;-55
2023/03/15 05:58:04;;;;;;;13.80;8.83;;;;;;;12.48;42.07;93392.38;4992863;28;20202;-55
2023/03/15 06:00:31;;;;;;;13.60;7.90;;;;;;;12.58;42.12;93398.00;4993386;28;20204;-54
2023/03/15 06:02:58;;;;;;;12.13;7.00;;;;;;;12.68;42.07;93406.19;4992273;28;20197;-56
2023/03/15 06:05:25;;;;;;;10.37;7.27;;;;;;;12.82;41.94;93401.97;4993005;28;20359;-53
2023/03/15 06:07:52;;;;;;;8.20;6.80;;;;;;;12.98;41.79;93395.81;4993130;28;20208;-57
2023/03/15 06:10:19;;;;;;;10.53;6.77;;;;;;;13.20;41.53;93401.72;4992909;28;20212;-56
2023/03/15 06:12:49;;;;;;;6.67;5.40;;;;;;;13.75;54.41;93406.09;4992767;28;20185;-58
2023/03/15 06:15:16;;;;;;;13.93;4.30;;;;;;;14.52;67.85;93389.66;4992709;28;20292;-57
2023/03/15 06:17:43;;;;;;;8.80;4.43;;;;;;;15.63;65.18;93414.94;4993026;28;20189;-50
2023/03/15 06:20:12;;;;;;;7.83;4.53;;;;;;;16.60;60.88;93409.91;4993019;28;20272;-53
2023/03/15 06:22:38;;;;;;;15.33;4.67;;;;;;;17.27;58.03;93411.94;4992601;28;20199;-50
2023/03/15 06:25:06;;;;;;;5.43;4.23;;;;;;;17.73;56.11;93421.09;4992580;28;20884;-58
2023/03/15 06:27:33;;;;;;;6.13;3.80;;;;;;;17.98;54.33;93420.31;4992102;28;20481;-58
2023/03/15 06:30:02;;;;;;;7.13;4.07;;;;;;;18.13;53.04;93407.78;4992369;28;20640;-55
2023/03/15 06:32:29;;;;;;;6.63;3.83;;;;;;;18.19;51.43;93403.56;4993049;28;20189;-54
2023/03/15 06:34:56;;;;;;;5.03;3.67;;;;;;;18.26;50.15;93396.50;4992342;28;20195;-51
2023/03/15 06:37:23;;;;;;;6.77;4.80;;;;;;;18.44;48.70;93395.72;4992798;28;20205;-53
2023/03/15 06:39:52;;;;;;;7.67;4.90;;;;;;;18.74;47.26;93382.84;4992694;28;20203;-55
2023/03/15 06:42:19;;;;;;;6.17;4.30;;;;;;;19.15;46.02;93412.34;4992457;28;20204;-55
2023/03/15 06:44:46;;;;;;;7.90;4.13;;;;;;;19.44;45.21;93403.72;4992295;28;20228;-56
2023/03/15 06:47:14;;;;;;;8.30;4.00;;;;;;;19.92;44.16;93394.97;4992454;28;20676;-57
2023/03/15 06:49:41;;;;;;;4.83;3.80;;;;;;;20.37;43.37;93390.97;4992374;28;20662;-57
2023/03/15 06:52:08;;;;;;;5.67;4.80;;;;;;;20.70;42.37;93396.31;4992446;28;20516;-59
2023/03/15 06:54:36;;;;;;;5.30;3.97;;;;;;;21.07;41.58;93405.53;4992468;28;20643;-55
2023/03/15 06:57:03;;;;;;;4.80;3.87;;;;;;;21.48;41.09;93409.63;4992076;28;20279;-56
2023/03/15 06:59:30;;;;;;;5.17;3.40;;;;;;;21.85;40.31;93401.31;4992315;28;20197;-55
2023/03/15 07:01:57;;;;;;;6.53;3.67;;;;;;;22.20;39.67;93390.66;4992506;28;20203;-54
2023/03/15 07:04:25;;;;;;;5.68;4.07;;;;;;;22.57;39.17;93385.63;4991981;28;20229;-55
2023/03/15 07:06:52;;;;;;;7.63;4.00;;;;;;;22.97;38.74;93392.31;4991918;28;20228;-60
2023/03/15 07:09:19;;;;;;;7.22;4.10;;;;;;;23.41;38.18;93390.38;4992087;28;20717;-54
2023/03/15 07:11:47;;;;;;;4.90;4.15;;;;;;;23.92;37.57;93388.16;4991821;28;20197;-57
2023/03/15 07:14:13;;;;;;;8.73;4.65;;;;;;;24.46;37.05;93393.16;4992278;28;20237;-54
2023/03/15 07:16:40;;;;;;;4.82;3.53;;;;;;;24.96;36.75;93393.59;4991910;28;20197;-54
2023/03/15 07:19:07;;;;;;;5.00;3.17;;;;;;;25.31;36.00;93390.28;4991883;28;20193;-56
2023/03/15 07:21:36;;;;;;;4.72;3.85;;;;;;;25.75;35.72;93390.53;4991533;28;20593;-56
2023/03/15 07:24:03;;;;;;;5.85;3.83;;;;;;;26.29;35.12;93404.84;4991512;28;20212;-50
2023/03/15 07:26:30;;;;;;;5.07;3.75;;;;;;;26.75;34.77;93396.84;4991866;28;20251;-55
2023/03/15 07:28:56;;;;;;;4.40;3.63;;;;;;;27.05;33.93;93395.91;4991297;28;20204;-49
2023/03/15 07:31:23;;;;;;;4.00;3.33;;;;;;;27.16;34.22;93399.28;4991519;28;20254;-53
2023/03/15 07:33:50;;;;;;;5.60;3.83;;;;;;;27.13;33.89;93387.50;4991078;28;20854;-49
2023/03/15 07:36:17;;;;;;;5.05;3.42;;;;;;;27.15;33.90;93372.25;4991171;28;20189;-51
2023/03/15 07:38:45;;;;;;;6.20;3.33;;;;;;;27.40;33.13;93373.13;4991014;28;20585;-50
2023/03/15 07:41:12;;;;;;;4.97;3.55;;;;;;;27.72;32.67;93373.44;4991380;28;20192;-48
2023/03/15 07:43:38;;;;;;;3.53;3.22;;;;;;;28.11;32.22;93396.19;4990903;28;20192;-49
2023/03/15 07:46:06;;;;;;;4.78;3.63;;;;;;;28.22;32.55;93394.25;4990975;28;20263;-50
2023/03/15 07:48:33;;;;;;;4.63;3.85;;;;;;;28.26;32.13;93393.41;4990784;28;20276;-53
2023/03/15 07:51:00;;;;;;;8.57;3.03;;;;;;;28.49;31.71;93385.81;4990986;28;20223;-47
2023/03/15 07:53:27;;;;;;;5.25;3.60;;;;;;;28.68;31.58;93380.59;4990403;28;20192;-56
2023/03/15 07:55:55;;;;;;;5.85;3.28;;;;;;;28.84;31.39;93381.16;4990605;28;20229;-55
2023/03/15 07:58:22;;;;;;;7.80;4.25;;;;;;;28.92;31.61;93380.53;4990717;28;20193;-52
2023/03/15 08:00:48;;;;;;;8.85;3.90;;;;;;;28.87;31.05;93378.75;4990469;28;20251;-50
2023/03/15 08:03:15;;;;;;;5.57;3.70;;;;;;;28.75;31.34;93381.03;4990496;28;20189;-52
2023/03/15 08:05:42;;;;;;;6.50;4.22;;;;;;;28.57;31.73;93385.19;4990409;28;20236;-53
2023/03/15 08:08:09;;;;;;;5.03;3.40;;;;;;;28.43;31.73;93387.72;4990661;28;20192;-49
2023/03/15 08:10:36;;;;;;;5.15;4.50;;;;;;;28.25;31.74;93388.44;4990663;28;20193;-50
2023/03/15 08:13:04;;;;;;;7.93;4.00;;;;;;;28.13;31.97;93388.03;4990668;28;20192;-55
2023/03/15 08:15:31;;;;;;;5.78;4.07;;;;;;;28.01;31.64;93370.78;4990258;28;20601;-57
2023/03/15 08:17:58;;;;;;;4.75;3.80;;;;;;;27.78;31.90;93362.88;4990500;28;20204;-53
2023/03/15 08:20:26;;;;;;;4.63;3.80;;;;;;;27.55;31.60;93359.91;4990354;28;20188;-56
2023/03/15 08:22:53;;;;;;;4.45;3.63;;;;;;;27.49;31.93;93366.22;4990390;28;20189;-55
2023/03/15 08:25:22;;;;;;;5.35;3.92;;;;;;;27.59;31.42;93365.34;4990082;28;20233;-48
2023/03/15 08:27:50;;;;;;;6.60;4.15;;;;;;;27.69;31.49;93368.69;4990227;28;20196;-51
2023/03/15 08:30:20;;;;;;;6.13;3.83;;;;;;;27.64;31.18;93368.75;4989976;28;20193;-55
2023/03/15 08:32:48;;;;;;;12.63;4.95;;;;;;;27.49;31.51;93355.72;4990285;28;20204;-49
2023/03/15 08:35:16;;;;;;;5.47;3.45;;;;;;;27.42;31.63;93356.06;4989963;28;20185;-48
2023/03/15 08:37:46;;;;;;;5.88;3.53;;;;;;;27.38;31.25;93355.03;4990231;28;20201;-48
2023/03/15 08:40:14;;;;;;;5.82;3.63;;;;;;;27.26;31.56;93344.88;4990282;28;20197;-50
2023/03/15 08:42:41;;;;;;;8.45;3.83;;;;;;;27.13;31.26;93348.13;4990064;28;20197;-48
2023/03/15 08:45:10;;;;;;;6.85;3.70;;;;;;;26.98;31.04;93341.09;4990068;28;20213;-50
2023/03/15 08:47:38;;;;;;;4.72;3.25;;;;;;;26.92;31.32;93336.94;4990006;28;20272;-49
2023/03/15 08:50:07;;;;;;;4.93;3.10;;;;;;;26.77;31.46;93326.56;4989724;28;20196;-50
2023/03/15 08:52:34;;;;;;;4.47;3.80;;;;;;;26.88;31.38;93348.25;4990011;28;20188;-47
2023/03/15 08:55:01;;;;;;;6.07;3.78;;;;;;;26.77;31.11;93356.19;4990364;28;20211;-46
2023/03/15 08:57:28;;;;;;;5.63;3.72;;;;;;;26.52;31.24;93343.22;4989765;28;20232;-55
2023/03/15 08:59:55;;;;;;;7.78;3.45;;;;;;;26.22;31.17;93342.25;4990315;28;20201;-56
2023/03/15 09:02:22;;;;;;;4.90;3.63;;;;;;;25.95;30.70;93358.31;4990081;28;20295;-51
2023/03/15 09:04:50;;;;;;;5.55;3.60;;;;;;;25.67;30.80;93357.00;4989866;28;20471;-54
2023/03/15 09:07:17;;;;;;;7.70;4.03;;;;;;;25.46;30.95;93343.16;4989784;28;20199;-55
2023/03/15 09:09:46;;;;;;;4.10;3.65;;;;;;;25.40;30.92;93351.28;4989783;28;20193;-58
2023/03/15 09:12:14;;;;;;;4.00;3.55;;;;;;;25.35;31.06;93348.66;4989989;28;20189;-57
2023/03/15 09:14:41;;;;;;;4.75;3.67;;;;;;;25.26;30.77;93343.94;4990066;28;21172;-53
2023/03/15 09:17:09;;;;;;;5.13;3.70;;;;;;;25.11;30.73;93348.38;4990182;28;20221;-57
2023/03/15 09:19:35;;;;;;;5.93;3.75;;;;;;;24.91;30.73;93343.88;4990107;28;20665;-55
2023/03/15 09:22:04;;;;;;;5.70;3.78;;;;;;;24.68;30.90;93347.75;4990370;28;20284;-57
2023/03/15 09:24:31;;;;;;;6.63;4.15;;;;;;;24.49;30.93;93348.22;4989672;28;20578;-55
2023/03/15 09:26:58;;;;;;;4.97;3.63;;;;;;;24.27;31.30;93352.81;4990280;28;20280;-52
2023/03/15 09:29:25;;;;;;;5.18;3.95;;;;;;;24.05;31.15;93355.59;4989861;28;20201;-57
2023/03/15 09:31:52;;;;;;;4.82;3.47;;;;;;;23.90;31.20;93351.06;4990200;28;20193;-60
2023/03/15 09:34:19;;;;;;;4.63;3.80;;;;;;;23.78;31.17;93346.03;4989707;28;20208;-55
2023/03/15 09:36:51;;;;;;;4.68;3.60;;;;;;;23.68;31.13;93343.38;4990249;28;20219;-57
2023/03/15 09:39:20;;;;;;;6.45;3.45;;;;;;;23.62;31.14;93333.91;4989526;28;20288;-57
2023/03/15 09:41:51;;;;;;;6.45;3.95;;;;;;;23.61;31.10;93344.59;4989682;28;20255;-57
2023/03/15 09:44:32;;;;;;;5.47;3.75;;;;;;;23.60;31.18;93340.41;4989871;28;20197;-58
2023/03/15 09:47:12;;;;;;;3.92;3.53;;;;;;;23.57;31.05;93333.84;4990004;28;20259;-56
2023/03/15 09:49:46;;;;;;;4.50;3.72;;;;;;;23.52;31.20;93331.22;4990002;28;20212;-56
2023/03/15 09:52:29;;;;;;;4.15;3.25;;;;;;;23.44;31.39;93321.25;4989441;28;20591;-54
2023/03/15 09:55:00;;;;;;;7.93;4.10;;;;;;;23.27;31.16;93308.34;4989889;28;20705;-56
2023/03/15 09:57:39;;;;;;;7.45;3.53;;;;;;;23.20;31.41;93313.00;4989096;28;20260;-52
2023/03/15 10:00:11;;;;;;;6.93;3.80;;;;;;;23.10;31.35;93315.50;4989761;28;20199;-55
2023/03/15 10:02:42;;;;;;;4.88;3.97;;;;;;;22.99;31.49;93318.03;4991894;28;20193;-58
2023/03/15 10:05:16;;;;;;;4.15;3.35;;;;;;;22.86;31.53;93320.22;4993238;28;20226;-51
2023/03/15 10:07:43;;;;;;;4.75;3.53;;;;;;;22.70;31.54;93324.50;4993144;28;20193;-58
2023/03/15 10:10:19;;;;;;;5.10;3.55;;;;;;;22.50;31.63;93319.91;4993102;28;20243;-54
2023/03/15 10:12:54;;;;;;;4.07;3.67;;;;;;;22.37;31.84;93322.88;4993182;28;20228;-53
2023/03/15 10:15:36;;;;;;;7.43;3.55;;;;;;;22.27;31.92;93318.31;4992849;28;20520;-55
2023/03/15 10:18:26;;;;;;;5.63;3.80;;;;;;;22.22;31.81;93321.66;4992789;28;20193;-55
2023/03/15 10:20:59;;;;;;;4.80;3.65;;;;;;;22.20;31.93;93318.53;4992659;28;20187;-54
2023/03/15 10:23:37;;;;;;;7.93;3.63;;;;;;;22.24;31.85;93324.81;4993028;28;20197;-52
2023/03/15 10:26:08;;;;;;;5.10;3.65;;;;;;;22.29;31.57;93322.28;4992337;28;20701;-47
2023/03/15 10:28:36;;;;;;;8.05;4.00;;;;;;;22.28;31.88;93318.09;4992570;28;20224;-49
2023/03/15 10:31:12;;;;;;;5.25;3.78;;;;;;;22.24;31.74;93309.19;4992068;28;20217;-49
2023/03/15 10:33:40;;;;;;;5.60;3.90;;;;;;;22.12;31.60;93305.94;4992284;28;20247;-47
2023/03/15 10:36:15;;;;;;;7.00;3.83;;;;;;;22.00;32.06;93303.41;4992226;28;20276;-53
2023/03/15 10:38:41;;;;;;;10.00;3.60;;;;;;;21.90;31.99;93307.72;4992408;28;20301;-54
2023/03/15 10:41:12;;;;;;;4.43;3.50;;;;;;;21.75;32.05;93319.47;4992128;28;20200;-49
2023/03/15 10:43:40;;;;;;;3.83;3.42;;;;;;;21.57;32.28;93319.75;4992352;28;20644;-49
2023/03/15 10:46:09;;;;;;;7.15;3.50;;;;;;;21.39;32.29;93317.41;4991918;28;20221;-48
2023/03/15 10:48:38;;;;;;;7.32;3.67;;;;;;;21.24;32.33;93310.94;4992030;28;20197;-48
2023/03/15 10:51:07;;;;;;;7.35;4.40;;;;;;;21.14;32.58;93307.38;4991434;28;20239;-51
2023/03/15 10:53:34;;;;;;;5.00;3.60;;;;;;;21.02;32.54;93305.63;4991724;28;20193;-48
2023/03/15 10:56:06;;;;;;;5.30;3.25;;;;;;;20.92;32.58;93312.50;4991688;28;20279;-51
2023/03/15 10:58:42;;;;;;;7.20;3.88;;;;;;;20.78;32.57;93314.63;4991840;28;20681;-47
2023/03/15 11:01:22;;;;;;;4.47;3.47;;;;;;;20.68;32.77;93317.03;4991821;28;20189;-49
2023/03/15 11:04:02;;;;;;;4.20;3.80;;;;;;;20.55;32.73;93302.50;4991731;28;20299;-52
2023/03/15 11:06:29;;;;;;;7.30;3.80;;;;;;;20.40;32.92;93300.41;4991343;28;20299;-51
2023/03/15 11:09:10;;;;;;;3.97;3.60;;;;;;;20.35;32.96;93315.13;4991801;28;20193;-50
2023/03/15 11:11:57;;;;;;;6.20;4.10;;;;;;;20.15;32.94;93292.94;4991792;28;20197;-57
2023/03/15 11:14:26;;;;;;;4.87;3.80;;;;;;;20.07;33.11;93300.28;4991579;28;20220;-53
2023/03/15 11:16:56;;;;;;;4.73;3.57;;;;;;;20.01;33.19;93295.00;4991826;28;20235;-47
2023/03/15 11:19:27;;;;;;;7.63;3.97;;;;;;;19.97;33.13;93301.66;4991339;28;20204;-47
2023/03/15 11:21:56;;;;;;;5.80;3.60;;;;;;;19.92;33.31;93303.38;4991695;28;20220;-53
2023/03/15 11:24:26;;;;;;;7.33;3.77;;;;;;;19.88;33.33;93304.84;4991291;28;20282;-51
2023/03/15 11:26:54;;;;;;;6.50;3.90;;;;;;;19.82;33.42;93296.19;4991427;28;20220;-54
2023/03/15 11:29:25;;;;;;;5.83;4.10;;;;;;;19.79;33.00;93309.59;4991215;28;20629;-52
2023/03/15 11:31:54;;;;;;;6.13;4.00;;;;;;;19.73;33.41;93310.50;4991563;28;20227;-52
2023/03/15 11:34:40;;;;;;;6.87;3.87;;;;;;;19.64;33.51;93311.88;4991290;28;20185;-51